• Join FlightAware (Why Join?)
  • Login
  • US Flag 
09:22AM EDT


 

Airport Tracker/Info


-or-


 

Live Flight TrackerFlight Track Log ✈ KAP927 ✈ 22-Aug-2013 ✈ KBOS - KALB

Flight Track Log - Related Links

Times and Time Zones

All times are in EDT time to prevent confusion due to time zone crossing. See the KAP927 flight status page for this flight to view local times or setup timezone preferences in your user account.

Time Position Orientation Groundspeed Altitude Reporting Facility
EDT Latitude Longitude Course Direction KTS MPH feet Rate Location/Type
01:42PM 42.3667 -71.0167 236° Southwest 119 137 400  Level KA90
01:44PM 42.3500 -71.0500 236° Southwest 94 108 1,100 600 Climbing KA90
01:45PM 42.3500 -71.1000 270° West 100 115 1,800 540 Climbing KA90
01:46PM 42.3667 -71.1333 304° West 116 133 2,300 420 Climbing KA90
01:47PM 42.3667 -71.1833 270° West 115 132 2,800 360 Climbing KA90
01:48PM 42.3667 -71.2333 270° West 122 140 3,100 300 Climbing KA90
01:49PM 42.3833 -71.2667 304° West 128 147 3,400 240 Climbing KA90
01:50PM 42.3833 -71.3167 270° West 135 155 3,600 300 Climbing KA90
01:51PM 42.3833 -71.3667 270° West 127 146 4,100 600 Climbing KA90
01:52PM 42.3833 -71.4167 270° West 108 124 4,900 600 Climbing KA90
01:53PM 42.3833 -71.4500 270° West 103 119 5,300 480 Climbing KA90
01:54PM 42.3833 -71.5000 270° West 111 128 6,000 540 Climbing KA90
01:55PM 42.4000 -71.5333 304° West 108 124 6,500 480 Climbing KA90
01:56PM 42.4000 -71.5667 270° West 111 128 7,000 420 Climbing KA90
01:58PM 42.4103 -71.6528 279° West 106 122 7,800 420 Climbing Boston Center
01:59PM 42.4167 -71.6978 281° West 106 122 8,400 300 Climbing Boston Center
02:00PM 42.4211 -71.7425 278° West 116 133 8,500  Climbing Boston Center
02:01PM 42.4319 -71.7931 286° West 133 153 8,500  Level Boston Center
02:02PM 42.4406 -71.8408 284° West 146 168 8,500  Level Boston Center
02:03PM 42.4492 -71.9028 281° West 146 168 8,500  Level Boston Center
02:04PM 42.4578 -71.9475 285° West 146 168 8,500  Level Boston Center
02:05PM 42.4703 -72.0011 288° West 141 162 8,600  Climbing Boston Center
02:06PM 42.4831 -72.0489 290° West 141 162 8,500 -60 Descending Boston Center
02:07PM 42.4894 -72.0967 280° West 141 162 8,500  Level Boston Center
02:08PM 42.4981 -72.1472 283° West 141 162 8,500  Level Boston Center
02:09PM 42.5106 -72.1950 290° West 141 162 8,600  Climbing Boston Center
02:10PM 42.5253 -72.2428 293° West 141 162 8,500 -60 Descending Boston Center
02:11PM 42.5358 -72.2936 286° West 146 168 8,500  Level Boston Center
02:12PM 42.5358 -72.3414 270° West 140 161 8,600  Climbing Boston Center
02:13PM 42.5358 -72.3894 270° West 140 161 8,600  Level Boston Center
02:14PM 42.5400 -72.4400 276° West 140 161 8,600 -60 Level Boston Center
02:15PM 42.5464 -72.4881 280° West 140 161 8,500 -60 Descending Boston Center
02:16PM 42.5544 -72.5417 282° West 140 161 8,500 -60 Level Boston Center
02:17PM 42.5650 -72.5922 286° West 145 167 8,400 -180 Descending Boston Center
02:18PM 42.5753 -72.6458 285° West 145 167 8,200 -360 Descending Boston Center
02:19PM 42.5836 -72.7022 281° West 157 181 7,700 -480 Descending Boston Center
02:20PM 42.5939 -72.7617 283° West 162 186 7,300 -600 Descending Boston Center
02:21PM 42.6019 -72.8264 280° West 167 192 6,600 -600 Descending Boston Center
02:22PM 42.6119 -72.8942 281° West 174 200 6,200 -420 Descending Boston Center
02:23PM 42.6203 -72.9564 280° West 179 206 5,800 -360 Descending Boston Center
02:24PM 42.6283 -73.0100 282° West 174 200 5,600 -240 Descending Boston Center
02:25PM 42.6383 -73.0750 282° West 163 188 5,400 -120 Descending Boston Center
02:26PM 42.6464 -73.1261 282° West 158 182 5,400 -120 Level Boston Center
02:27PM 42.6564 -73.1883 282° West 158 182 5,200 -300 Descending Boston Center
02:28PM 42.6664 -73.2392 285° West 158 182 4,900 -300 Descending Boston Center
02:29PM 42.6744 -73.3014 280° West 158 182 4,700 -180 Descending Boston Center
02:30PM 42.6864 -73.3494 289° West 158 182 4,600 -240 Descending Boston Center
02:31PM 42.7006 -73.4147 286° West 163 188 4,300 -300 Descending Boston Center
02:32PM 42.7125 -73.4658 288° West 163 188 4,100 -420 Descending Boston Center
02:33PM 42.7181 -73.5336 276° West 168 193 3,500 -600 Descending Boston Center
02:34PM 42.7281 -73.5906 283° West 168 193 3,000 -600 Descending Boston Center
02:34PM 42.7358 -73.6331 284° West 170 196 2,600 -660 Descending Boston Center
02:36PM 42.7478 -73.6983 284° West 169 194 2,000 -660 Descending Boston Center
02:36PM 42.7492 -73.7464 272° West 134 154 1,300 -840 Descending Boston Center
02:37PM 42.7489 -73.7831 269° West 98 113 500 -900 Descending Boston Center
02:39PM 42.7333 -73.8000 270° West  Level FlightAware Approximate
02:46PM 42.7491 -73.8020 270° West  Level Estimated
02:47PM 42.7491 -73.8020 270° West  Level Estimated
02:48PM 42.7491 -73.8020 270° West  Level Estimated